sensor_id;sensor_type;location;lat;lon;timestamp;P1;durP1;ratioP1;P2;durP2;ratioP2
41229;SDS011;26964;50.428;19.218;2023-06-26T00:00:13;8.8;;;5.6;;
41229;SDS011;26964;50.428;19.218;2023-06-26T00:01:12;8.2;;;5.7;;
41229;SDS011;26964;50.428;19.218;2023-06-26T00:02:13;8.3;;;5.9;;
41229;SDS011;26964;50.428;19.218;2023-06-26T00:03:12;9.1;;;6.0;;
41229;SDS011;26964;50.428;19.218;2023-06-26T00:04:12;9.9;;;6.0;;
41229;SDS011;26964;50.428;19.218;2023-06-26T00:05:12;7.7;;;5.6;;
41229;SDS011;26964;50.428;19.218;2023-06-26T00:06:12;9.6;;;6.2;;
41229;SDS011;26964;50.428;19.218;2023-06-26T00:07:12;9.5;;;6.5;;
41229;SDS011;26964;50.428;19.218;2023-06-26T00:08:12;7.5;;;6.0;;
41229;SDS011;26964;50.428;19.218;2023-06-26T00:09:12;8.6;;;6.1;;
41229;SDS011;26964;50.428;19.218;2023-06-26T00:10:12;9.7;;;6.9;;
41229;SDS011;26964;50.428;19.218;2023-06-26T00:11:12;10.3;;;6.5;;
41229;SDS011;26964;50.428;19.218;2023-06-26T00:12:12;10.2;;;8.0;;
41229;SDS011;26964;50.428;19.218;2023-06-26T00:13:13;12.7;;;7.5;;
41229;SDS011;26964;50.428;19.218;2023-06-26T00:14:12;11.0;;;7.0;;
41229;SDS011;26964;50.428;19.218;2023-06-26T00:15:12;9.2;;;7.1;;
41229;SDS011;26964;50.428;19.218;2023-06-26T00:16:13;11.9;;;7.9;;
41229;SDS011;26964;50.428;19.218;2023-06-26T00:17:15;9.6;;;7.4;;
41229;SDS011;26964;50.428;19.218;2023-06-26T00:18:12;9.6;;;7.0;;
41229;SDS011;26964;50.428;19.218;2023-06-26T00:19:12;9.9;;;7.5;;
41229;SDS011;26964;50.428;19.218;2023-06-26T00:20:12;9.6;;;7.2;;
41229;SDS011;26964;50.428;19.218;2023-06-26T00:21:12;11.0;;;7.2;;
41229;SDS011;26964;50.428;19.218;2023-06-26T00:22:13;11.3;;;7.5;;
41229;SDS011;26964;50.428;19.218;2023-06-26T00:23:12;11.1;;;7.2;;
41229;SDS011;26964;50.428;19.218;2023-06-26T00:24:13;11.0;;;7.1;;
41229;SDS011;26964;50.428;19.218;2023-06-26T00:25:12;8.8;;;6.8;;
41229;SDS011;26964;50.428;19.218;2023-06-26T00:26:12;10.1;;;7.5;;
41229;SDS011;26964;50.428;19.218;2023-06-26T00:27:12;11.4;;;8.0;;
41229;SDS011;26964;50.428;19.218;2023-06-26T00:28:12;10.8;;;7.4;;
41229;SDS011;26964;50.428;19.218;2023-06-26T00:29:12;11.9;;;7.1;;
41229;SDS011;26964;50.428;19.218;2023-06-26T00:30:13;10.7;;;7.1;;
41229;SDS011;26964;50.428;19.218;2023-06-26T00:31:13;13.1;;;7.8;;
41229;SDS011;26964;50.428;19.218;2023-06-26T00:32:12;14.1;;;8.0;;
41229;SDS011;26964;50.428;19.218;2023-06-26T00:33:12;9.8;;;7.3;;
41229;SDS011;26964;50.428;19.218;2023-06-26T00:34:12;11.2;;;7.6;;
41229;SDS011;26964;50.428;19.218;2023-06-26T00:35:13;10.8;;;7.8;;
41229;SDS011;26964;50.428;19.218;2023-06-26T00:36:12;12.0;;;7.2;;
41229;SDS011;26964;50.428;19.218;2023-06-26T00:37:12;10.6;;;7.1;;
41229;SDS011;26964;50.428;19.218;2023-06-26T00:38:12;10.0;;;7.2;;
41229;SDS011;26964;50.428;19.218;2023-06-26T00:39:15;8.7;;;7.0;;
41229;SDS011;26964;50.428;19.218;2023-06-26T00:40:12;10.0;;;6.6;;
41229;SDS011;26964;50.428;19.218;2023-06-26T00:41:12;9.6;;;7.2;;
41229;SDS011;26964;50.428;19.218;2023-06-26T00:42:12;10.4;;;7.2;;
41229;SDS011;26964;50.428;19.218;2023-06-26T00:43:12;11.0;;;7.0;;
41229;SDS011;26964;50.428;19.218;2023-06-26T00:44:12;9.8;;;6.5;;
41229;SDS011;26964;50.428;19.218;2023-06-26T00:45:12;10.9;;;6.9;;
41229;SDS011;26964;50.428;19.218;2023-06-26T00:46:13;9.4;;;6.6;;
41229;SDS011;26964;50.428;19.218;2023-06-26T00:47:14;9.5;;;6.2;;
41229;SDS011;26964;50.428;19.218;2023-06-26T00:48:12;8.9;;;6.1;;
41229;SDS011;26964;50.428;19.218;2023-06-26T00:49:12;9.3;;;6.6;;
41229;SDS011;26964;50.428;19.218;2023-06-26T00:50:12;8.0;;;6.0;;
41229;SDS011;26964;50.428;19.218;2023-06-26T00:51:12;11.8;;;6.2;;
41229;SDS011;26964;50.428;19.218;2023-06-26T00:52:12;9.4;;;5.8;;
41229;SDS011;26964;50.428;19.218;2023-06-26T00:53:12;10.7;;;6.1;;
41229;SDS011;26964;50.428;19.218;2023-06-26T00:54:13;8.3;;;6.5;;
41229;SDS011;26964;50.428;19.218;2023-06-26T00:55:13;9.3;;;5.7;;
41229;SDS011;26964;50.428;19.218;2023-06-26T00:56:12;8.5;;;6.6;;
41229;SDS011;26964;50.428;19.218;2023-06-26T00:57:13;8.6;;;6.4;;
41229;SDS011;26964;50.428;19.218;2023-06-26T00:58:12;9.2;;;6.2;;
41229;SDS011;26964;50.428;19.218;2023-06-26T00:59:13;10.4;;;6.3;;
41229;SDS011;26964;50.428;19.218;2023-06-26T01:00:16;9.8;;;6.4;;
41229;SDS011;26964;50.428;19.218;2023-06-26T01:01:12;9.5;;;7.1;;
41229;SDS011;26964;50.428;19.218;2023-06-26T01:02:12;8.6;;;6.4;;
41229;SDS011;26964;50.428;19.218;2023-06-26T01:03:12;9.7;;;6.5;;
41229;SDS011;26964;50.428;19.218;2023-06-26T01:04:12;10.5;;;6.5;;
41229;SDS011;26964;50.428;19.218;2023-06-26T01:05:13;8.3;;;6.4;;
41229;SDS011;26964;50.428;19.218;2023-06-26T01:06:13;9.6;;;6.4;;
41229;SDS011;26964;50.428;19.218;2023-06-26T01:07:12;10.2;;;6.9;;
41229;SDS011;26964;50.428;19.218;2023-06-26T01:08:12;9.3;;;7.1;;
41229;SDS011;26964;50.428;19.218;2023-06-26T01:09:12;9.5;;;6.7;;
41229;SDS011;26964;50.428;19.218;2023-06-26T01:10:12;11.9;;;7.1;;
41229;SDS011;26964;50.428;19.218;2023-06-26T01:11:12;9.1;;;6.3;;
41229;SDS011;26964;50.428;19.218;2023-06-26T01:12:12;10.2;;;6.7;;
41229;SDS011;26964;50.428;19.218;2023-06-26T01:13:13;10.8;;;6.8;;
41229;SDS011;26964;50.428;19.218;2023-06-26T01:14:12;10.2;;;6.9;;
41229;SDS011;26964;50.428;19.218;2023-06-26T01:15:12;9.3;;;6.7;;
41229;SDS011;26964;50.428;19.218;2023-06-26T01:16:12;9.0;;;6.3;;
41229;SDS011;26964;50.428;19.218;2023-06-26T01:17:12;9.5;;;6.5;;
41229;SDS011;26964;50.428;19.218;2023-06-26T01:18:12;10.7;;;6.3;;
41229;SDS011;26964;50.428;19.218;2023-06-26T01:19:13;9.8;;;6.6;;
41229;SDS011;26964;50.428;19.218;2023-06-26T01:20:12;10.0;;;6.8;;
41229;SDS011;26964;50.428;19.218;2023-06-26T01:21:13;9.9;;;6.7;;
41229;SDS011;26964;50.428;19.218;2023-06-26T01:23:14;11.6;;;6.8;;
41229;SDS011;26964;50.428;19.218;2023-06-26T01:24:15;10.7;;;7.4;;
41229;SDS011;26964;50.428;19.218;2023-06-26T01:25:15;12.2;;;7.1;;
41229;SDS011;26964;50.428;19.218;2023-06-26T01:27:12;11.3;;;7.7;;
41229;SDS011;26964;50.428;19.218;2023-06-26T01:28:12;10.3;;;6.8;;
41229;SDS011;26964;50.428;19.218;2023-06-26T01:29:12;9.8;;;7.2;;
41229;SDS011;26964;50.428;19.218;2023-06-26T01:30:12;10.1;;;7.7;;
41229;SDS011;26964;50.428;19.218;2023-06-26T01:31:13;10.6;;;7.7;;
41229;SDS011;26964;50.428;19.218;2023-06-26T01:32:12;11.2;;;7.6;;
41229;SDS011;26964;50.428;19.218;2023-06-26T01:33:13;11.2;;;7.5;;
41229;SDS011;26964;50.428;19.218;2023-06-26T01:34:12;11.8;;;7.9;;
41229;SDS011;26964;50.428;19.218;2023-06-26T01:35:12;11.2;;;7.0;;
41229;SDS011;26964;50.428;19.218;2023-06-26T01:36:12;11.3;;;7.1;;
41229;SDS011;26964;50.428;19.218;2023-06-26T01:37:12;10.6;;;7.2;;
41229;SDS011;26964;50.428;19.218;2023-06-26T01:38:13;11.0;;;7.7;;
41229;SDS011;26964;50.428;19.218;2023-06-26T01:39:14;11.5;;;7.3;;
41229;SDS011;26964;50.428;19.218;2023-06-26T01:40:12;10.1;;;7.1;;
41229;SDS011;26964;50.428;19.218;2023-06-26T01:41:13;10.9;;;8.1;;
41229;SDS011;26964;50.428;19.218;2023-06-26T01:42:13;10.5;;;6.9;;
41229;SDS011;26964;50.428;19.218;2023-06-26T01:45:15;10.6;;;6.9;;
41229;SDS011;26964;50.428;19.218;2023-06-26T01:46:14;10.1;;;6.9;;
41229;SDS011;26964;50.428;19.218;2023-06-26T01:47:14;10.8;;;6.8;;
41229;SDS011;26964;50.428;19.218;2023-06-26T01:48:12;9.8;;;6.5;;
41229;SDS011;26964;50.428;19.218;2023-06-26T01:49:14;10.1;;;6.9;;
41229;SDS011;26964;50.428;19.218;2023-06-26T01:50:14;11.2;;;6.9;;
41229;SDS011;26964;50.428;19.218;2023-06-26T01:51:12;9.2;;;6.6;;
41229;SDS011;26964;50.428;19.218;2023-06-26T01:52:14;13.0;;;6.8;;
41229;SDS011;26964;50.428;19.218;2023-06-26T01:53:13;11.3;;;7.2;;
41229;SDS011;26964;50.428;19.218;2023-06-26T01:54:14;10.0;;;6.9;;
41229;SDS011;26964;50.428;19.218;2023-06-26T01:55:15;15.2;;;6.5;;
41229;SDS011;26964;50.428;19.218;2023-06-26T01:56:13;10.9;;;6.6;;
41229;SDS011;26964;50.428;19.218;2023-06-26T01:57:12;13.3;;;8.1;;
41229;SDS011;26964;50.428;19.218;2023-06-26T01:58:12;9.6;;;6.4;;
41229;SDS011;26964;50.428;19.218;2023-06-26T01:59:12;9.7;;;6.9;;
41229;SDS011;26964;50.428;19.218;2023-06-26T02:00:13;12.4;;;7.2;;
41229;SDS011;26964;50.428;19.218;2023-06-26T02:01:12;11.1;;;7.2;;
41229;SDS011;26964;50.428;19.218;2023-06-26T02:02:12;8.3;;;6.4;;
41229;SDS011;26964;50.428;19.218;2023-06-26T02:03:13;9.6;;;6.9;;
41229;SDS011;26964;50.428;19.218;2023-06-26T02:04:12;10.6;;;7.0;;
41229;SDS011;26964;50.428;19.218;2023-06-26T02:05:12;10.9;;;7.4;;
41229;SDS011;26964;50.428;19.218;2023-06-26T02:06:12;10.1;;;7.5;;
41229;SDS011;26964;50.428;19.218;2023-06-26T02:07:12;9.3;;;6.7;;
41229;SDS011;26964;50.428;19.218;2023-06-26T02:08:13;9.8;;;7.0;;
41229;SDS011;26964;50.428;19.218;2023-06-26T02:09:12;12.0;;;7.6;;
41229;SDS011;26964;50.428;19.218;2023-06-26T02:10:12;9.8;;;7.6;;
41229;SDS011;26964;50.428;19.218;2023-06-26T02:11:12;11.1;;;7.8;;
41229;SDS011;26964;50.428;19.218;2023-06-26T02:12:12;12.8;;;7.9;;
41229;SDS011;26964;50.428;19.218;2023-06-26T02:13:12;10.5;;;8.0;;
41229;SDS011;26964;50.428;19.218;2023-06-26T02:14:12;12.4;;;8.3;;
41229;SDS011;26964;50.428;19.218;2023-06-26T02:15:12;12.2;;;8.0;;
41229;SDS011;26964;50.428;19.218;2023-06-26T02:16:12;11.5;;;7.8;;
41229;SDS011;26964;50.428;19.218;2023-06-26T02:17:13;12.1;;;7.7;;
41229;SDS011;26964;50.428;19.218;2023-06-26T02:18:12;10.9;;;7.6;;
41229;SDS011;26964;50.428;19.218;2023-06-26T02:19:12;9.7;;;7.3;;
41229;SDS011;26964;50.428;19.218;2023-06-26T02:20:12;11.2;;;7.9;;
41229;SDS011;26964;50.428;19.218;2023-06-26T02:21:13;11.6;;;8.1;;
41229;SDS011;26964;50.428;19.218;2023-06-26T02:22:13;12.1;;;8.3;;
41229;SDS011;26964;50.428;19.218;2023-06-26T02:23:12;11.8;;;8.0;;
41229;SDS011;26964;50.428;19.218;2023-06-26T02:24:12;12.4;;;8.3;;
41229;SDS011;26964;50.428;19.218;2023-06-26T02:25:14;10.9;;;7.7;;
41229;SDS011;26964;50.428;19.218;2023-06-26T02:26:12;11.6;;;7.8;;
41229;SDS011;26964;50.428;19.218;2023-06-26T02:27:12;11.4;;;8.1;;
41229;SDS011;26964;50.428;19.218;2023-06-26T02:28:12;10.5;;;7.6;;
41229;SDS011;26964;50.428;19.218;2023-06-26T02:29:12;11.6;;;8.0;;
41229;SDS011;26964;50.428;19.218;2023-06-26T02:30:12;10.9;;;7.3;;
41229;SDS011;26964;50.428;19.218;2023-06-26T02:31:12;12.5;;;8.2;;
41229;SDS011;26964;50.428;19.218;2023-06-26T02:32:12;13.4;;;8.3;;
41229;SDS011;26964;50.428;19.218;2023-06-26T02:33:12;9.8;;;7.4;;
41229;SDS011;26964;50.428;19.218;2023-06-26T02:34:12;11.2;;;7.8;;
41229;SDS011;26964;50.428;19.218;2023-06-26T02:35:12;10.6;;;8.1;;
41229;SDS011;26964;50.428;19.218;2023-06-26T02:36:12;11.2;;;7.9;;
41229;SDS011;26964;50.428;19.218;2023-06-26T02:37:12;10.3;;;7.6;;
41229;SDS011;26964;50.428;19.218;2023-06-26T02:38:12;11.4;;;7.7;;
41229;SDS011;26964;50.428;19.218;2023-06-26T02:39:12;11.4;;;8.2;;
41229;SDS011;26964;50.428;19.218;2023-06-26T02:40:12;11.5;;;8.3;;
41229;SDS011;26964;50.428;19.218;2023-06-26T02:41:12;11.2;;;7.8;;
41229;SDS011;26964;50.428;19.218;2023-06-26T02:42:12;12.9;;;8.3;;
41229;SDS011;26964;50.428;19.218;2023-06-26T02:43:12;10.8;;;7.8;;
41229;SDS011;26964;50.428;19.218;2023-06-26T02:44:12;13.2;;;8.4;;
41229;SDS011;26964;50.428;19.218;2023-06-26T02:45:12;15.6;;;7.5;;
41229;SDS011;26964;50.428;19.218;2023-06-26T02:46:14;11.1;;;8.1;;
41229;SDS011;26964;50.428;19.218;2023-06-26T02:47:12;11.4;;;7.6;;
41229;SDS011;26964;50.428;19.218;2023-06-26T02:48:12;10.8;;;7.3;;
41229;SDS011;26964;50.428;19.218;2023-06-26T02:49:12;11.2;;;8.2;;
41229;SDS011;26964;50.428;19.218;2023-06-26T02:50:12;11.7;;;8.2;;
41229;SDS011;26964;50.428;19.218;2023-06-26T02:51:12;15.0;;;8.4;;
41229;SDS011;26964;50.428;19.218;2023-06-26T02:52:12;12.7;;;9.1;;
41229;SDS011;26964;50.428;19.218;2023-06-26T02:53:12;10.5;;;7.4;;
41229;SDS011;26964;50.428;19.218;2023-06-26T02:54:12;10.6;;;7.6;;
41229;SDS011;26964;50.428;19.218;2023-06-26T02:55:12;11.4;;;8.6;;
41229;SDS011;26964;50.428;19.218;2023-06-26T02:56:12;10.0;;;7.1;;
41229;SDS011;26964;50.428;19.218;2023-06-26T02:57:12;11.8;;;7.0;;
41229;SDS011;26964;50.428;19.218;2023-06-26T02:58:12;12.9;;;7.8;;
41229;SDS011;26964;50.428;19.218;2023-06-26T02:59:12;13.1;;;8.4;;
41229;SDS011;26964;50.428;19.218;2023-06-26T03:00:13;13.0;;;8.4;;
41229;SDS011;26964;50.428;19.218;2023-06-26T03:01:12;12.0;;;8.0;;
41229;SDS011;26964;50.428;19.218;2023-06-26T03:02:12;11.6;;;7.3;;
41229;SDS011;26964;50.428;19.218;2023-06-26T03:03:12;10.5;;;7.0;;
41229;SDS011;26964;50.428;19.218;2023-06-26T03:04:12;10.9;;;7.6;;
41229;SDS011;26964;50.428;19.218;2023-06-26T03:05:12;10.1;;;7.7;;
41229;SDS011;26964;50.428;19.218;2023-06-26T03:06:12;12.9;;;8.0;;
41229;SDS011;26964;50.428;19.218;2023-06-26T03:07:12;10.5;;;7.6;;
41229;SDS011;26964;50.428;19.218;2023-06-26T03:08:15;12.8;;;8.6;;
41229;SDS011;26964;50.428;19.218;2023-06-26T03:09:12;12.3;;;8.3;;
41229;SDS011;26964;50.428;19.218;2023-06-26T03:10:12;10.9;;;8.1;;
41229;SDS011;26964;50.428;19.218;2023-06-26T03:11:12;12.7;;;9.3;;
41229;SDS011;26964;50.428;19.218;2023-06-26T03:12:12;11.5;;;8.6;;
41229;SDS011;26964;50.428;19.218;2023-06-26T03:13:12;12.1;;;9.9;;
41229;SDS011;26964;50.428;19.218;2023-06-26T03:14:12;12.9;;;8.9;;
41229;SDS011;26964;50.428;19.218;2023-06-26T03:15:12;11.1;;;7.9;;
41229;SDS011;26964;50.428;19.218;2023-06-26T03:16:12;10.1;;;7.4;;
41229;SDS011;26964;50.428;19.218;2023-06-26T03:17:12;10.0;;;7.4;;
41229;SDS011;26964;50.428;19.218;2023-06-26T03:18:12;12.6;;;8.2;;
41229;SDS011;26964;50.428;19.218;2023-06-26T03:19:12;13.7;;;7.6;;
41229;SDS011;26964;50.428;19.218;2023-06-26T03:20:12;10.9;;;7.8;;
41229;SDS011;26964;50.428;19.218;2023-06-26T03:21:12;10.7;;;7.8;;
41229;SDS011;26964;50.428;19.218;2023-06-26T03:22:12;11.4;;;7.9;;
41229;SDS011;26964;50.428;19.218;2023-06-26T03:23:12;14.1;;;8.5;;
41229;SDS011;26964;50.428;19.218;2023-06-26T03:24:12;10.4;;;7.8;;
41229;SDS011;26964;50.428;19.218;2023-06-26T03:25:12;9.4;;;7.5;;
41229;SDS011;26964;50.428;19.218;2023-06-26T03:26:12;10.6;;;7.4;;
41229;SDS011;26964;50.428;19.218;2023-06-26T03:27:12;10.7;;;7.8;;
41229;SDS011;26964;50.428;19.218;2023-06-26T03:28:12;9.7;;;6.9;;
41229;SDS011;26964;50.428;19.218;2023-06-26T03:29:16;10.2;;;7.9;;
41229;SDS011;26964;50.428;19.218;2023-06-26T03:30:13;10.1;;;7.8;;
41229;SDS011;26964;50.428;19.218;2023-06-26T03:31:12;11.3;;;8.2;;
41229;SDS011;26964;50.428;19.218;2023-06-26T03:32:12;11.7;;;8.1;;
41229;SDS011;26964;50.428;19.218;2023-06-26T03:33:12;13.0;;;8.1;;
41229;SDS011;26964;50.428;19.218;2023-06-26T03:34:12;13.0;;;8.3;;
41229;SDS011;26964;50.428;19.218;2023-06-26T03:35:12;10.0;;;7.6;;
41229;SDS011;26964;50.428;19.218;2023-06-26T03:36:12;10.5;;;7.5;;
41229;SDS011;26964;50.428;19.218;2023-06-26T03:37:12;10.4;;;7.9;;
41229;SDS011;26964;50.428;19.218;2023-06-26T03:38:12;10.1;;;7.9;;
41229;SDS011;26964;50.428;19.218;2023-06-26T03:39:12;11.7;;;7.9;;
41229;SDS011;26964;50.428;19.218;2023-06-26T03:40:12;14.7;;;9.0;;
41229;SDS011;26964;50.428;19.218;2023-06-26T03:41:12;12.3;;;8.6;;
41229;SDS011;26964;50.428;19.218;2023-06-26T03:42:12;14.0;;;8.7;;
41229;SDS011;26964;50.428;19.218;2023-06-26T03:43:12;13.8;;;8.6;;
41229;SDS011;26964;50.428;19.218;2023-06-26T03:44:12;14.3;;;10.2;;
41229;SDS011;26964;50.428;19.218;2023-06-26T03:45:12;12.0;;;8.7;;
41229;SDS011;26964;50.428;19.218;2023-06-26T03:46:12;12.2;;;8.3;;
41229;SDS011;26964;50.428;19.218;2023-06-26T03:47:12;13.2;;;9.4;;
41229;SDS011;26964;50.428;19.218;2023-06-26T03:48:12;13.0;;;8.7;;
41229;SDS011;26964;50.428;19.218;2023-06-26T03:49:12;12.4;;;9.0;;
41229;SDS011;26964;50.428;19.218;2023-06-26T03:50:15;10.9;;;8.3;;
41229;SDS011;26964;50.428;19.218;2023-06-26T03:51:12;12.6;;;9.3;;
41229;SDS011;26964;50.428;19.218;2023-06-26T03:52:12;11.7;;;8.6;;
41229;SDS011;26964;50.428;19.218;2023-06-26T03:53:12;12.6;;;9.1;;
41229;SDS011;26964;50.428;19.218;2023-06-26T03:54:12;11.7;;;8.2;;
41229;SDS011;26964;50.428;19.218;2023-06-26T03:55:12;11.5;;;8.7;;
41229;SDS011;26964;50.428;19.218;2023-06-26T03:56:12;11.9;;;8.6;;
41229;SDS011;26964;50.428;19.218;2023-06-26T03:57:12;14.6;;;8.7;;
41229;SDS011;26964;50.428;19.218;2023-06-26T03:58:12;15.5;;;9.4;;
41229;SDS011;26964;50.428;19.218;2023-06-26T03:59:12;12.0;;;7.7;;
41229;SDS011;26964;50.428;19.218;2023-06-26T04:00:13;12.3;;;8.6;;
41229;SDS011;26964;50.428;19.218;2023-06-26T04:01:12;13.8;;;9.7;;
41229;SDS011;26964;50.428;19.218;2023-06-26T04:02:12;14.4;;;8.9;;
41229;SDS011;26964;50.428;19.218;2023-06-26T04:03:12;15.4;;;9.4;;
41229;SDS011;26964;50.428;19.218;2023-06-26T04:04:12;13.8;;;8.7;;
41229;SDS011;26964;50.428;19.218;2023-06-26T04:05:12;12.2;;;8.8;;
41229;SDS011;26964;50.428;19.218;2023-06-26T04:06:12;12.1;;;8.2;;
41229;SDS011;26964;50.428;19.218;2023-06-26T04:07:12;11.5;;;8.3;;
41229;SDS011;26964;50.428;19.218;2023-06-26T04:08:12;11.1;;;8.5;;
41229;SDS011;26964;50.428;19.218;2023-06-26T04:09:12;11.1;;;8.7;;
41229;SDS011;26964;50.428;19.218;2023-06-26T04:10:12;12.1;;;8.6;;
41229;SDS011;26964;50.428;19.218;2023-06-26T04:11:15;13.0;;;8.9;;
41229;SDS011;26964;50.428;19.218;2023-06-26T04:12:13;15.8;;;8.7;;
41229;SDS011;26964;50.428;19.218;2023-06-26T04:13:12;13.7;;;9.3;;
41229;SDS011;26964;50.428;19.218;2023-06-26T04:14:12;11.9;;;9.3;;
41229;SDS011;26964;50.428;19.218;2023-06-26T04:15:12;12.1;;;9.0;;
41229;SDS011;26964;50.428;19.218;2023-06-26T04:16:12;13.5;;;8.4;;
41229;SDS011;26964;50.428;19.218;2023-06-26T04:17:12;17.0;;;9.8;;
41229;SDS011;26964;50.428;19.218;2023-06-26T04:18:12;15.8;;;9.2;;
41229;SDS011;26964;50.428;19.218;2023-06-26T04:19:12;21.2;;;9.8;;
41229;SDS011;26964;50.428;19.218;2023-06-26T04:20:12;18.4;;;9.3;;
41229;SDS011;26964;50.428;19.218;2023-06-26T04:21:12;14.7;;;9.2;;
41229;SDS011;26964;50.428;19.218;2023-06-26T04:22:12;14.2;;;9.0;;
41229;SDS011;26964;50.428;19.218;2023-06-26T04:23:12;16.9;;;10.4;;
41229;SDS011;26964;50.428;19.218;2023-06-26T04:24:12;14.6;;;8.7;;
41229;SDS011;26964;50.428;19.218;2023-06-26T04:25:12;14.7;;;9.3;;
41229;SDS011;26964;50.428;19.218;2023-06-26T04:26:12;14.6;;;9.4;;
41229;SDS011;26964;50.428;19.218;2023-06-26T04:27:12;14.7;;;9.3;;
41229;SDS011;26964;50.428;19.218;2023-06-26T04:28:12;13.4;;;9.8;;
41229;SDS011;26964;50.428;19.218;2023-06-26T04:29:12;12.3;;;8.7;;
41229;SDS011;26964;50.428;19.218;2023-06-26T04:30:12;12.4;;;8.4;;
41229;SDS011;26964;50.428;19.218;2023-06-26T04:31:12;11.9;;;8.3;;
41229;SDS011;26964;50.428;19.218;2023-06-26T04:32:13;13.8;;;8.5;;
41229;SDS011;26964;50.428;19.218;2023-06-26T04:33:12;14.6;;;8.8;;
41229;SDS011;26964;50.428;19.218;2023-06-26T04:34:12;15.5;;;8.9;;
41229;SDS011;26964;50.428;19.218;2023-06-26T04:35:12;17.0;;;9.3;;
41229;SDS011;26964;50.428;19.218;2023-06-26T04:36:12;11.4;;;8.4;;
41229;SDS011;26964;50.428;19.218;2023-06-26T04:37:12;12.7;;;8.5;;
41229;SDS011;26964;50.428;19.218;2023-06-26T04:38:12;15.9;;;9.3;;
41229;SDS011;26964;50.428;19.218;2023-06-26T04:39:12;14.1;;;8.9;;
41229;SDS011;26964;50.428;19.218;2023-06-26T04:40:12;14.8;;;9.5;;
41229;SDS011;26964;50.428;19.218;2023-06-26T04:41:12;11.5;;;8.4;;
41229;SDS011;26964;50.428;19.218;2023-06-26T04:42:12;14.3;;;9.6;;
41229;SDS011;26964;50.428;19.218;2023-06-26T04:43:12;15.7;;;9.3;;
41229;SDS011;26964;50.428;19.218;2023-06-26T04:44:12;12.6;;;9.3;;
41229;SDS011;26964;50.428;19.218;2023-06-26T04:45:12;14.8;;;9.6;;
41229;SDS011;26964;50.428;19.218;2023-06-26T04:46:12;14.7;;;9.4;;
41229;SDS011;26964;50.428;19.218;2023-06-26T04:47:12;16.6;;;9.6;;
41229;SDS011;26964;50.428;19.218;2023-06-26T04:48:12;14.3;;;9.9;;
41229;SDS011;26964;50.428;19.218;2023-06-26T04:49:12;14.7;;;9.3;;
41229;SDS011;26964;50.428;19.218;2023-06-26T04:50:12;17.1;;;10.5;;
41229;SDS011;26964;50.428;19.218;2023-06-26T04:51:12;13.7;;;9.3;;
41229;SDS011;26964;50.428;19.218;2023-06-26T04:52:12;12.9;;;8.9;;
41229;SDS011;26964;50.428;19.218;2023-06-26T04:53:13;13.1;;;9.2;;
41229;SDS011;26964;50.428;19.218;2023-06-26T04:54:12;18.4;;;9.9;;
41229;SDS011;26964;50.428;19.218;2023-06-26T04:55:12;15.0;;;9.3;;
41229;SDS011;26964;50.428;19.218;2023-06-26T04:56:12;15.8;;;9.7;;
41229;SDS011;26964;50.428;19.218;2023-06-26T04:57:12;16.4;;;9.9;;
41229;SDS011;26964;50.428;19.218;2023-06-26T04:58:12;17.4;;;9.2;;
41229;SDS011;26964;50.428;19.218;2023-06-26T04:59:12;14.8;;;9.9;;
41229;SDS011;26964;50.428;19.218;2023-06-26T05:00:13;17.0;;;9.7;;
41229;SDS011;26964;50.428;19.218;2023-06-26T05:01:12;13.8;;;9.1;;
41229;SDS011;26964;50.428;19.218;2023-06-26T05:02:12;16.6;;;9.3;;
41229;SDS011;26964;50.428;19.218;2023-06-26T05:03:12;13.7;;;9.5;;
41229;SDS011;26964;50.428;19.218;2023-06-26T05:04:12;17.1;;;10.2;;
41229;SDS011;26964;50.428;19.218;2023-06-26T05:05:12;14.4;;;9.7;;
41229;SDS011;26964;50.428;19.218;2023-06-26T05:06:12;16.3;;;9.7;;
41229;SDS011;26964;50.428;19.218;2023-06-26T05:07:12;12.3;;;8.9;;
41229;SDS011;26964;50.428;19.218;2023-06-26T05:08:13;14.4;;;9.5;;
41229;SDS011;26964;50.428;19.218;2023-06-26T05:09:12;13.7;;;8.8;;
41229;SDS011;26964;50.428;19.218;2023-06-26T05:10:12;13.8;;;9.2;;
41229;SDS011;26964;50.428;19.218;2023-06-26T05:11:12;15.5;;;9.5;;
41229;SDS011;26964;50.428;19.218;2023-06-26T05:12:12;16.1;;;10.0;;
41229;SDS011;26964;50.428;19.218;2023-06-26T05:13:12;14.6;;;9.4;;
41229;SDS011;26964;50.428;19.218;2023-06-26T05:14:12;16.0;;;9.0;;
41229;SDS011;26964;50.428;19.218;2023-06-26T05:15:14;15.7;;;8.7;;
41229;SDS011;26964;50.428;19.218;2023-06-26T05:16:12;14.8;;;9.2;;
41229;SDS011;26964;50.428;19.218;2023-06-26T05:17:13;18.9;;;9.5;;
41229;SDS011;26964;50.428;19.218;2023-06-26T05:18:12;14.8;;;9.4;;
41229;SDS011;26964;50.428;19.218;2023-06-26T05:19:12;15.9;;;8.3;;
41229;SDS011;26964;50.428;19.218;2023-06-26T05:20:12;16.1;;;9.4;;
41229;SDS011;26964;50.428;19.218;2023-06-26T05:21:12;16.8;;;9.3;;
41229;SDS011;26964;50.428;19.218;2023-06-26T05:22:12;13.1;;;8.7;;
41229;SDS011;26964;50.428;19.218;2023-06-26T05:23:12;15.1;;;9.2;;
41229;SDS011;26964;50.428;19.218;2023-06-26T05:24:12;12.7;;;8.3;;
41229;SDS011;26964;50.428;19.218;2023-06-26T05:25:12;15.2;;;9.0;;
41229;SDS011;26964;50.428;19.218;2023-06-26T05:26:12;13.2;;;8.3;;
41229;SDS011;26964;50.428;19.218;2023-06-26T05:27:12;13.9;;;8.8;;
41229;SDS011;26964;50.428;19.218;2023-06-26T05:28:12;22.6;;;9.9;;
41229;SDS011;26964;50.428;19.218;2023-06-26T05:29:12;13.6;;;8.7;;
41229;SDS011;26964;50.428;19.218;2023-06-26T05:30:13;14.7;;;8.4;;
41229;SDS011;26964;50.428;19.218;2023-06-26T05:31:12;13.9;;;8.1;;
41229;SDS011;26964;50.428;19.218;2023-06-26T05:32:12;14.0;;;8.3;;
41229;SDS011;26964;50.428;19.218;2023-06-26T05:33:12;14.0;;;8.8;;
41229;SDS011;26964;50.428;19.218;2023-06-26T05:34:12;13.0;;;8.4;;
41229;SDS011;26964;50.428;19.218;2023-06-26T05:35:12;12.2;;;8.3;;
41229;SDS011;26964;50.428;19.218;2023-06-26T05:36:14;13.4;;;9.1;;
41229;SDS011;26964;50.428;19.218;2023-06-26T05:37:12;13.0;;;8.5;;
41229;SDS011;26964;50.428;19.218;2023-06-26T05:38:12;11.6;;;8.6;;
41229;SDS011;26964;50.428;19.218;2023-06-26T05:39:12;13.4;;;8.5;;
41229;SDS011;26964;50.428;19.218;2023-06-26T05:40:12;15.0;;;8.7;;
41229;SDS011;26964;50.428;19.218;2023-06-26T05:41:12;15.3;;;8.7;;
41229;SDS011;26964;50.428;19.218;2023-06-26T05:42:12;16.8;;;9.4;;
41229;SDS011;26964;50.428;19.218;2023-06-26T05:43:13;17.8;;;9.4;;
41229;SDS011;26964;50.428;19.218;2023-06-26T05:44:12;23.7;;;10.1;;
41229;SDS011;26964;50.428;19.218;2023-06-26T05:45:12;16.4;;;8.8;;
41229;SDS011;26964;50.428;19.218;2023-06-26T05:46:12;16.7;;;8.6;;
41229;SDS011;26964;50.428;19.218;2023-06-26T05:47:12;20.3;;;9.3;;
41229;SDS011;26964;50.428;19.218;2023-06-26T05:48:12;16.5;;;8.7;;
41229;SDS011;26964;50.428;19.218;2023-06-26T05:49:12;15.5;;;8.6;;
41229;SDS011;26964;50.428;19.218;2023-06-26T05:50:12;18.0;;;9.0;;
41229;SDS011;26964;50.428;19.218;2023-06-26T05:51:12;15.0;;;9.3;;
41229;SDS011;26964;50.428;19.218;2023-06-26T05:52:12;16.7;;;8.8;;
41229;SDS011;26964;50.428;19.218;2023-06-26T05:53:12;21.1;;;9.6;;
41229;SDS011;26964;50.428;19.218;2023-06-26T05:54:14;19.3;;;9.7;;
41229;SDS011;26964;50.428;19.218;2023-06-26T05:55:13;15.5;;;8.5;;
41229;SDS011;26964;50.428;19.218;2023-06-26T05:56:12;19.0;;;8.4;;
41229;SDS011;26964;50.428;19.218;2023-06-26T05:57:14;14.8;;;8.1;;
41229;SDS011;26964;50.428;19.218;2023-06-26T05:58:12;16.8;;;8.6;;
41229;SDS011;26964;50.428;19.218;2023-06-26T05:59:12;16.0;;;8.8;;
41229;SDS011;26964;50.428;19.218;2023-06-26T06:00:12;14.3;;;8.1;;
41229;SDS011;26964;50.428;19.218;2023-06-26T06:01:12;12.2;;;8.1;;
41229;SDS011;26964;50.428;19.218;2023-06-26T06:02:12;14.0;;;8.1;;
41229;SDS011;26964;50.428;19.218;2023-06-26T06:03:12;14.5;;;8.4;;
41229;SDS011;26964;50.428;19.218;2023-06-26T06:04:12;13.6;;;7.6;;
41229;SDS011;26964;50.428;19.218;2023-06-26T06:05:13;13.9;;;8.8;;
41229;SDS011;26964;50.428;19.218;2023-06-26T06:06:12;11.1;;;8.2;;